createdAt,value
2023-02-22T00:02:26.129Z,90.78
2023-02-22T00:04:59.406Z,90.54
2023-02-22T00:07:31.439Z,90.73
2023-02-22T00:10:04.254Z,90.87
2023-02-22T00:12:36.894Z,91.26
2023-02-22T00:15:10.537Z,91.22
2023-02-22T00:17:43.678Z,91.22
2023-02-22T00:20:19.569Z,91.39
2023-02-22T00:22:53.830Z,91.56
2023-02-22T00:25:26.963Z,91.43
2023-02-22T00:27:59.360Z,91.40
2023-02-22T00:30:34.260Z,91.31
2023-02-22T00:33:07.926Z,91.29
2023-02-22T00:35:39.745Z,91.36
2023-02-22T00:38:13.932Z,91.28
2023-02-22T00:40:46.891Z,91.59
2023-02-22T00:43:19.977Z,91.71
2023-02-22T00:45:54.275Z,91.67
2023-02-22T00:48:26.431Z,91.75
2023-02-22T00:50:59.291Z,91.91
2023-02-22T00:53:31.380Z,92.03
2023-02-22T00:56:04.144Z,91.89
2023-02-22T00:58:36.526Z,91.93
2023-02-22T01:01:09.536Z,91.99
2023-02-22T01:03:41.730Z,91.52
2023-02-22T01:06:14.667Z,91.62
2023-02-22T01:08:49.628Z,91.30
2023-02-22T01:11:22.771Z,91.24
2023-02-22T01:13:55.782Z,91.23
2023-02-22T01:16:29.144Z,90.87
2023-02-22T01:19:01.861Z,91.04
2023-02-22T01:21:34.146Z,91.23
2023-02-22T01:24:06.596Z,91.10
2023-02-22T01:26:39.766Z,91.23
2023-02-22T01:29:15.555Z,91.38
2023-02-22T01:31:53.178Z,91.58
2023-02-22T01:34:26.538Z,91.48
2023-02-22T01:36:59.428Z,91.33
2023-02-22T01:39:32.366Z,91.40
2023-02-22T01:42:04.443Z,91.39
2023-02-22T01:44:39.127Z,91.43
2023-02-22T01:47:11.395Z,91.39
2023-02-22T01:49:48.300Z,91.49
2023-02-22T01:52:23.291Z,91.56
2023-02-22T01:54:58.210Z,91.52
2023-02-22T01:57:33.281Z,91.77
2023-02-22T02:00:11.534Z,91.79
2023-02-22T02:02:47.055Z,91.92
2023-02-22T02:05:20.474Z,91.85
2023-02-22T02:07:51.155Z,92.03
2023-02-22T02:10:24.733Z,92.11
2023-02-22T02:12:59.131Z,92.16
2023-02-22T02:15:34.254Z,92.28
2023-02-22T02:18:09.368Z,92.26
2023-02-22T02:20:49.504Z,91.91
2023-02-22T02:23:55.322Z,91.93
2023-02-22T02:27:05.599Z,91.92
2023-02-22T02:30:17.162Z,91.94
2023-02-22T02:33:03.161Z,92.33
2023-02-22T02:35:49.363Z,92.37
2023-02-22T02:38:32.880Z,92.54
2023-02-22T02:41:12.671Z,92.62
2023-02-22T02:43:50.508Z,92.41
2023-02-22T02:46:28.175Z,92.63
2023-02-22T02:49:03.874Z,92.67
2023-02-22T02:51:38.946Z,92.88
2023-02-22T02:54:13.637Z,92.87
2023-02-22T02:56:47.530Z,92.55
2023-02-22T02:59:34.560Z,92.53
2023-02-22T03:02:29.718Z,92.33
2023-02-22T03:05:14.706Z,91.90
2023-02-22T03:08:04.176Z,91.64
2023-02-22T03:10:50.876Z,91.34
2023-02-22T03:13:36.738Z,91.05
2023-02-22T03:16:19.830Z,91.12
2023-02-22T03:19:00.907Z,91.06
2023-02-22T03:21:43.769Z,90.75
2023-02-22T03:24:22.192Z,90.48
2023-02-22T03:27:00.502Z,90.43
2023-02-22T03:29:35.864Z,90.26
2023-02-22T03:32:15.174Z,89.94
2023-02-22T03:34:53.349Z,89.82
2023-02-22T03:37:29.230Z,89.86
2023-02-22T03:40:07.608Z,90.07
2023-02-22T03:42:42.352Z,90.24
2023-02-22T03:45:18.269Z,90.10
2023-02-22T03:47:53.462Z,90.22
2023-02-22T03:50:30.062Z,90.25
2023-02-22T03:53:01.989Z,90.41
2023-02-22T03:55:34.574Z,90.28
2023-02-22T03:58:11.228Z,90.44
2023-02-22T04:00:44.889Z,90.50
2023-02-22T04:03:17.833Z,90.48
2023-02-22T04:05:49.631Z,90.37
2023-02-22T04:08:22.293Z,90.12
2023-02-22T04:10:55.092Z,89.94
2023-02-22T04:13:27.603Z,90.21
2023-02-22T04:15:59.804Z,90.57
2023-02-22T04:18:31.790Z,90.90
2023-02-22T04:21:04.267Z,91.08
2023-02-22T04:23:36.716Z,91.08
2023-02-22T04:26:09.612Z,90.89
2023-02-22T04:28:41.858Z,91.02
2023-02-22T04:31:14.310Z,91.06
2023-02-22T04:33:46.808Z,91.46
2023-02-22T04:36:18.786Z,91.69
2023-02-22T04:38:50.782Z,91.64
2023-02-22T04:41:24.477Z,91.12
2023-02-22T04:43:57.590Z,90.76
2023-02-22T04:46:29.551Z,90.51
2023-02-22T04:49:01.603Z,90.63
2023-02-22T04:51:33.346Z,90.76
2023-02-22T04:54:06.322Z,90.91
2023-02-22T04:56:38.799Z,91.21
2023-02-22T04:59:10.186Z,91.60
2023-02-22T05:01:42.569Z,91.79
2023-02-22T05:04:15.229Z,91.86
2023-02-22T05:06:48.175Z,91.86
2023-02-22T05:09:20.407Z,91.88
2023-02-22T05:11:52.494Z,91.72
2023-02-22T05:14:27.297Z,91.17
2023-02-22T05:17:01.190Z,91.30
2023-02-22T05:19:33.460Z,91.28
2023-02-22T05:22:06.101Z,91.43
2023-02-22T05:24:38.773Z,91.68
2023-02-22T05:27:12.305Z,92.04
2023-02-22T05:29:44.155Z,92.11
2023-02-22T05:32:16.012Z,92.20
2023-02-22T05:34:48.065Z,92.12
2023-02-22T05:37:20.218Z,92.12
2023-02-22T05:39:52.944Z,92.27
2023-02-22T05:42:25.013Z,92.47
2023-02-22T05:44:57.424Z,92.56
2023-02-22T05:47:29.746Z,92.59
2023-02-22T05:50:02.328Z,92.72
2023-02-22T05:52:33.846Z,92.63
2023-02-22T05:55:06.113Z,92.54
2023-02-22T05:57:38.571Z,92.60
2023-02-22T06:00:17.071Z,92.71
2023-02-22T06:02:48.987Z,92.76
2023-02-22T06:05:21.356Z,92.61
2023-02-22T06:07:54.923Z,92.56
2023-02-22T06:10:27.676Z,92.87
2023-02-22T06:13:00.845Z,93.17
2023-02-22T06:15:32.715Z,93.30
2023-02-22T06:18:05.148Z,93.36
2023-02-22T06:20:37.351Z,93.46
2023-02-22T06:23:09.730Z,93.71
2023-02-22T06:25:41.354Z,94.07
2023-02-22T06:28:13.624Z,94.13
2023-02-22T06:30:46.663Z,94.43
2023-02-22T06:33:19.053Z,94.50
2023-02-22T06:35:51.691Z,94.62
2023-02-22T06:38:27.983Z,94.53
2023-02-22T06:41:00.343Z,94.41
2023-02-22T06:43:32.350Z,94.53
2023-02-22T06:46:04.382Z,94.64
2023-02-22T06:48:38.664Z,94.53
2023-02-22T06:51:11.854Z,94.35
2023-02-22T06:53:44.746Z,94.39
2023-02-22T06:56:16.083Z,94.44
2023-02-22T06:58:49.959Z,94.46
2023-02-22T07:01:22.467Z,94.36
2023-02-22T07:03:55.061Z,94.38
2023-02-22T07:06:27.549Z,94.25
2023-02-22T07:09:00.268Z,94.21
2023-02-22T07:11:32.334Z,94.14
2023-02-22T07:14:04.714Z,94.20
2023-02-22T07:16:36.842Z,94.26
2023-02-22T07:19:09.618Z,94.16
2023-02-22T07:21:42.189Z,93.72
2023-02-22T07:24:14.611Z,93.64
2023-02-22T07:26:47.313Z,93.72
2023-02-22T07:29:19.822Z,93.63
2023-02-22T07:31:53.503Z,93.83
2023-02-22T07:34:26.529Z,93.85
2023-02-22T07:36:59.226Z,93.77
2023-02-22T07:39:31.759Z,93.86
2023-02-22T07:42:04.295Z,93.89
2023-02-22T07:44:37.878Z,93.74
2023-02-22T07:47:13.082Z,93.56
2023-02-22T07:49:45.600Z,93.73
2023-02-22T07:52:18.449Z,93.72
2023-02-22T07:54:51.917Z,93.75
2023-02-22T07:57:25.014Z,93.76
2023-02-22T07:59:56.837Z,93.58
2023-02-22T08:02:29.882Z,93.50
2023-02-22T08:05:02.590Z,93.24
2023-02-22T08:07:35.847Z,93.29
2023-02-22T08:10:08.653Z,93.35
2023-02-22T08:12:41.927Z,93.22
2023-02-22T08:15:20.943Z,93.45
2023-02-22T08:17:54.554Z,93.53
2023-02-22T08:20:28.548Z,93.44
2023-02-22T08:23:01.265Z,93.68
2023-02-22T08:25:34.710Z,93.64
2023-02-22T08:28:09.283Z,93.55
2023-02-22T08:30:44.503Z,93.30
2023-02-22T08:33:20.175Z,93.00
2023-02-22T08:35:53.431Z,92.96
2023-02-22T08:38:29.339Z,93.26
2023-02-22T08:41:01.151Z,93.21
2023-02-22T08:43:34.173Z,93.20
2023-02-22T08:46:06.331Z,93.06
2023-02-22T08:48:40.223Z,92.83
2023-02-22T08:51:13.017Z,92.72
2023-02-22T08:53:46.246Z,92.84
2023-02-22T08:56:18.094Z,92.72
2023-02-22T08:58:50.521Z,92.75
2023-02-22T09:01:32.913Z,92.79
2023-02-22T09:04:06.069Z,92.63
2023-02-22T09:06:42.054Z,92.54
2023-02-22T09:09:15.777Z,92.34
2023-02-22T09:11:48.439Z,92.52
2023-02-22T09:14:21.464Z,92.40
2023-02-22T09:16:54.077Z,92.27
2023-02-22T09:19:27.425Z,92.22
2023-02-22T09:22:00.263Z,92.08
2023-02-22T09:24:32.993Z,91.93
2023-02-22T09:27:08.404Z,91.63
2023-02-22T09:29:41.546Z,91.65
2023-02-22T09:32:14.538Z,91.60
2023-02-22T09:34:48.983Z,91.43
2023-02-22T09:37:21.885Z,91.35
2023-02-22T09:39:54.665Z,91.20
2023-02-22T09:42:34.988Z,91.08
2023-02-22T09:45:13.522Z,90.94
2023-02-22T09:47:51.031Z,90.83
2023-02-22T09:50:28.478Z,90.73
2023-02-22T09:53:05.575Z,90.65
2023-02-22T09:55:43.004Z,90.65
2023-02-22T09:58:27.700Z,90.66
2023-02-22T10:01:07.505Z,90.42
2023-02-22T10:03:48.602Z,90.28
2023-02-22T10:06:24.782Z,90.21
2023-02-22T10:09:01.776Z,89.97
2023-02-22T10:11:59.805Z,89.69
2023-02-22T10:15:05.205Z,89.33
2023-02-22T10:17:46.641Z,89.14
2023-02-22T10:20:37.645Z,89.18
2023-02-22T10:23:20.671Z,89.18
2023-02-22T10:25:59.054Z,88.88
2023-02-22T10:28:37.121Z,88.53
2023-02-22T10:31:15.212Z,88.65
2023-02-22T10:33:56.329Z,88.58
2023-02-22T10:36:29.360Z,88.41
2023-02-22T10:39:08.426Z,88.24
2023-02-22T10:41:46.177Z,88.08
2023-02-22T10:44:19.039Z,87.91
2023-02-22T10:46:51.250Z,87.85
2023-02-22T10:49:25.953Z,87.85
2023-02-22T10:52:05.273Z,87.66
2023-02-22T10:54:41.886Z,87.68
2023-02-22T10:57:15.300Z,87.39
2023-02-22T10:59:47.746Z,87.33
2023-02-22T11:02:25.095Z,87.27
2023-02-22T11:04:59.209Z,87.12
2023-02-22T11:07:33.298Z,86.96
2023-02-22T11:10:08.722Z,86.91
2023-02-22T11:12:42.742Z,86.68
2023-02-22T11:15:32.145Z,86.52
2023-02-22T11:18:07.885Z,86.16
2023-02-22T11:20:42.372Z,85.75
2023-02-22T11:23:15.111Z,85.36
2023-02-22T11:25:47.902Z,85.30
2023-02-22T11:28:31.460Z,85.15
2023-02-22T11:31:15.582Z,84.78
2023-02-22T11:36:41.241Z,84.72
2023-02-22T11:39:29.745Z,84.71
2023-02-22T11:42:20.275Z,84.17
2023-02-22T11:45:10.170Z,84.08
2023-02-22T11:47:56.358Z,83.95
2023-02-22T11:50:40.855Z,83.87
2023-02-22T11:53:34.088Z,83.55
2023-02-22T11:56:28.469Z,83.69
2023-02-22T11:59:17.233Z,83.73
2023-02-22T12:01:54.201Z,83.35
2023-02-22T12:04:53.531Z,83.15
2023-02-22T12:07:50.520Z,83.22
2023-02-22T12:10:40.891Z,83.02
2023-02-22T12:13:28.581Z,82.75
2023-02-22T12:16:03.757Z,82.55
2023-02-22T12:18:41.150Z,82.55
2023-02-22T12:21:17.234Z,82.24
2023-02-22T12:23:55.777Z,82.30
2023-02-22T12:26:32.350Z,82.51
2023-02-22T12:29:14.809Z,82.13
2023-02-22T12:31:52.028Z,81.89
2023-02-22T12:34:36.251Z,81.65
2023-02-22T12:37:16.512Z,81.14
2023-02-22T12:40:01.248Z,81.16
2023-02-22T12:42:43.299Z,80.91
2023-02-22T12:45:23.033Z,80.73
2023-02-22T12:48:02.326Z,80.83
2023-02-22T12:50:36.746Z,80.76
2023-02-22T12:53:20.309Z,80.78
2023-02-22T12:55:59.196Z,80.87
2023-02-22T12:58:35.487Z,80.88
2023-02-22T13:01:18.235Z,80.58
2023-02-22T13:03:50.644Z,80.32
2023-02-22T13:06:42.642Z,80.71
2023-02-22T13:09:38.243Z,80.75
2023-02-22T13:12:18.260Z,80.39
2023-02-22T13:15:01.941Z,80.02
2023-02-22T13:17:45.025Z,80.10
2023-02-22T13:20:21.831Z,80.43
2023-02-22T13:23:00.002Z,80.18
2023-02-22T13:25:39.444Z,80.36
2023-02-22T13:28:24.569Z,80.46
2023-02-22T13:31:13.142Z,80.23
2023-02-22T13:34:04.019Z,79.99
2023-02-22T13:36:55.382Z,79.65
2023-02-22T13:39:55.910Z,79.72
2023-02-22T13:42:59.913Z,79.69
2023-02-22T13:45:53.884Z,79.71
2023-02-22T13:48:38.240Z,79.73
2023-02-22T13:51:15.256Z,79.31
2023-02-22T13:53:56.515Z,79.46
2023-02-22T13:56:30.319Z,79.31
2023-02-22T13:59:04.180Z,79.26
2023-02-22T14:01:49.256Z,79.18
2023-02-22T14:04:39.226Z,79.12
2023-02-22T14:07:56.106Z,78.80
2023-02-22T14:10:52.134Z,78.93
2023-02-22T14:13:27.030Z,79.06
2023-02-22T14:16:21.233Z,79.09
2023-02-22T14:19:06.698Z,78.82
2023-02-22T14:21:56.940Z,78.57
2023-02-22T14:24:29.974Z,78.55
2023-02-22T14:27:06.658Z,78.27
2023-02-22T14:29:40.563Z,78.26
2023-02-22T14:32:15.553Z,77.87
2023-02-22T14:34:58.179Z,77.92
2023-02-22T14:37:32.019Z,78.22
2023-02-22T14:40:13.658Z,78.26
2023-02-22T14:42:51.134Z,78.36
2023-02-22T14:45:29.825Z,78.32
2023-02-22T14:48:12.788Z,78.20
2023-02-22T14:50:53.643Z,78.28
2023-02-22T14:53:37.167Z,78.49
2023-02-22T14:56:17.004Z,78.32
2023-02-22T14:58:56.888Z,78.43
2023-02-22T15:01:48.881Z,78.16
2023-02-22T15:04:29.163Z,78.22
2023-02-22T15:07:03.277Z,78.34
2023-02-22T15:09:38.124Z,78.22
2023-02-22T15:12:24.655Z,78.18
2023-02-22T15:15:22.774Z,78.25
2023-02-22T15:17:59.823Z,78.37
2023-02-22T15:20:32.962Z,78.17
2023-02-22T15:23:06.813Z,78.58
2023-02-22T15:25:41.899Z,78.84
2023-02-22T15:28:18.664Z,79.05
2023-02-22T15:30:51.969Z,79.00
2023-02-22T15:33:38.982Z,79.13
2023-02-22T15:36:18.984Z,78.90
2023-02-22T15:38:57.852Z,79.19
2023-02-22T15:41:34.723Z,79.16
2023-02-22T15:44:23.792Z,79.39
2023-02-22T15:46:57.115Z,79.48
2023-02-22T15:49:34.585Z,79.56
2023-02-22T15:52:12.476Z,79.42
2023-02-22T15:54:48.929Z,79.24
2023-02-22T15:57:25.764Z,79.65
2023-02-22T16:00:00.329Z,79.86
2023-02-22T16:02:42.284Z,80.08
2023-02-22T16:05:18.761Z,80.05
2023-02-22T16:07:54.504Z,80.09
2023-02-22T16:10:33.935Z,80.33
2023-02-22T16:13:31.498Z,80.30
2023-02-22T16:16:06.611Z,80.23
2023-02-22T16:18:42.786Z,80.27
2023-02-22T16:21:17.479Z,80.47
2023-02-22T16:23:52.111Z,80.46
2023-02-22T16:26:33.406Z,80.51
2023-02-22T16:29:09.556Z,80.63
2023-02-22T16:31:42.242Z,80.66
2023-02-22T16:34:17.878Z,80.56
2023-02-22T16:36:51.954Z,80.77
2023-02-22T16:39:27.766Z,80.84
2023-02-22T16:42:03.196Z,80.90
2023-02-22T16:44:36.089Z,80.90
2023-02-22T16:47:07.889Z,81.01
2023-02-22T16:49:42.959Z,81.00
2023-02-22T16:52:15.985Z,81.18
2023-02-22T16:54:50.286Z,81.30
2023-02-22T16:57:24.608Z,81.60
2023-02-22T16:59:57.408Z,81.59
2023-02-22T17:02:30.354Z,81.72
2023-02-22T17:05:02.816Z,81.97
2023-02-22T17:07:35.144Z,82.20
2023-02-22T17:10:08.157Z,82.33
2023-02-22T17:12:44.704Z,82.34
2023-02-22T17:15:22.707Z,82.49
2023-02-22T17:17:56.559Z,82.56
2023-02-22T17:20:31.829Z,82.76
2023-02-22T17:23:08.794Z,82.91
2023-02-22T17:25:45.024Z,83.04
2023-02-22T17:28:17.540Z,83.22
2023-02-22T17:30:50.262Z,83.25
2023-02-22T17:33:26.987Z,83.40
2023-02-22T17:36:02.187Z,83.46
2023-02-22T17:38:35.302Z,83.48
2023-02-22T17:41:11.188Z,83.63
2023-02-22T17:43:43.841Z,83.61
2023-02-22T17:46:19.712Z,83.67
2023-02-22T17:48:55.991Z,83.80
2023-02-22T17:51:30.689Z,83.84
2023-02-22T17:54:03.339Z,83.78
2023-02-22T17:56:35.829Z,83.72
2023-02-22T17:59:09.690Z,83.81
2023-02-22T18:01:44.355Z,83.97
2023-02-22T18:04:16.887Z,83.83
2023-02-22T18:06:48.912Z,83.87
2023-02-22T18:09:21.224Z,83.90
2023-02-22T18:11:53.798Z,83.92
2023-02-22T18:14:26.042Z,83.94
2023-02-22T18:16:58.249Z,84.03
2023-02-22T18:19:31.737Z,84.11
2023-02-22T18:22:05.135Z,84.18
2023-02-22T18:24:38.280Z,84.27
2023-02-22T18:27:12.562Z,84.09
2023-02-22T18:29:45.566Z,84.30
2023-02-22T18:32:18.714Z,84.39
2023-02-22T18:34:51.526Z,84.54
2023-02-22T18:37:24.497Z,84.57
2023-02-22T18:39:57.582Z,84.60
2023-02-22T18:42:31.546Z,84.62
2023-02-22T18:45:05.089Z,84.66
2023-02-22T18:47:42.693Z,84.77
2023-02-22T18:50:17.861Z,84.85
2023-02-22T18:52:50.604Z,84.81
2023-02-22T18:55:24.379Z,84.78
2023-02-22T18:57:57.060Z,84.84
2023-02-22T19:00:31.161Z,84.94
2023-02-22T19:03:06.509Z,84.98
2023-02-22T19:05:39.442Z,84.95
2023-02-22T19:08:12.137Z,85.02
2023-02-22T19:10:45.017Z,85.18
2023-02-22T19:13:16.584Z,85.28
2023-02-22T19:15:47.018Z,85.19
2023-02-22T19:18:17.655Z,85.20
2023-02-22T19:20:58.853Z,85.27
2023-02-22T19:23:34.328Z,85.33
2023-02-22T19:26:09.330Z,85.51
2023-02-22T19:28:40.370Z,85.49
2023-02-22T19:31:16.355Z,85.56
2023-02-22T19:33:48.429Z,85.54
2023-02-22T19:36:20.136Z,85.71
2023-02-22T19:38:50.603Z,85.68
2023-02-22T19:41:22.705Z,85.78
2023-02-22T19:43:55.791Z,85.84
2023-02-22T19:46:26.443Z,85.88
2023-02-22T19:48:57.315Z,85.98
2023-02-22T19:51:29.204Z,86.04
2023-02-22T19:54:02.390Z,86.06
2023-02-22T19:56:35.203Z,86.06
2023-02-22T19:59:12.507Z,86.23
2023-02-22T20:01:44.727Z,86.40
2023-02-22T20:04:18.589Z,86.17
2023-02-22T20:06:53.786Z,86.22
2023-02-22T20:09:29.785Z,86.24
2023-02-22T20:12:00.411Z,86.24
2023-02-22T20:14:30.876Z,86.18
2023-02-22T20:17:01.676Z,86.24
2023-02-22T20:19:32.403Z,86.26
2023-02-22T20:22:03.191Z,86.05
2023-02-22T20:24:33.634Z,85.93
2023-02-22T20:27:04.041Z,85.80
2023-02-22T20:29:34.529Z,85.70
2023-02-22T20:32:05.620Z,85.72
2023-02-22T20:34:36.291Z,85.63
2023-02-22T20:37:06.844Z,85.56
2023-02-22T20:39:38.374Z,85.52
2023-02-22T20:42:11.689Z,85.63
2023-02-22T20:44:42.862Z,85.59
2023-02-22T20:47:13.226Z,85.70
2023-02-22T20:49:44.280Z,86.08
2023-02-22T20:52:14.889Z,86.08
2023-02-22T20:54:45.511Z,86.29
2023-02-22T20:57:16.137Z,86.20
2023-02-22T20:59:47.632Z,86.64
2023-02-22T21:02:18.258Z,86.72
2023-02-22T21:04:48.893Z,86.97
2023-02-22T21:07:22.369Z,87.07
2023-02-22T21:09:52.669Z,87.25
2023-02-22T21:12:23.225Z,87.39
2023-02-22T21:14:54.026Z,87.38
2023-02-22T21:17:28.839Z,87.55
2023-02-22T21:19:59.421Z,87.59
2023-02-22T21:22:30.165Z,87.74
2023-02-22T21:25:00.983Z,87.77
2023-02-22T21:27:31.348Z,87.87
2023-02-22T21:30:01.752Z,87.75
2023-02-22T21:32:32.872Z,87.96
2023-02-22T21:35:03.460Z,88.03
2023-02-22T21:37:34.599Z,88.12
2023-02-22T21:40:11.239Z,88.34
2023-02-22T21:42:41.774Z,88.10
2023-02-22T21:45:13.557Z,88.16
2023-02-22T21:47:46.308Z,88.20
2023-02-22T21:50:17.957Z,88.24
2023-02-22T21:52:49.108Z,88.35
2023-02-22T21:55:20.120Z,88.32
2023-02-22T21:57:50.549Z,88.41
2023-02-22T22:00:29.382Z,88.37
2023-02-22T22:03:05.834Z,88.51
2023-02-22T22:05:39.248Z,88.53
2023-02-22T22:08:13.253Z,88.34
2023-02-22T22:10:43.616Z,88.41
2023-02-22T22:13:14.570Z,88.49
2023-02-22T22:15:45.058Z,88.56
2023-02-22T22:18:15.696Z,88.53
2023-02-22T22:20:46.001Z,88.63
2023-02-22T22:23:17.257Z,88.72
2023-02-22T22:25:51.054Z,88.79
2023-02-22T22:28:21.399Z,88.54
2023-02-22T22:30:53.998Z,88.74
2023-02-22T22:33:26.513Z,88.71
2023-02-22T22:35:59.534Z,88.74
2023-02-22T22:38:30.048Z,88.68
2023-02-22T22:41:05.489Z,88.82
2023-02-22T22:43:37.085Z,88.84
2023-02-22T22:46:09.388Z,88.85
2023-02-22T22:48:40.869Z,88.75
2023-02-22T22:51:18.307Z,88.77
2023-02-22T22:53:50.343Z,88.94
2023-02-22T22:56:25.907Z,88.86
2023-02-22T22:59:00.154Z,88.88
2023-02-22T23:01:34.233Z,88.83
2023-02-22T23:04:07.785Z,88.65
2023-02-22T23:06:40.684Z,88.62
2023-02-22T23:09:15.111Z,88.88
2023-02-22T23:11:47.780Z,89.01
2023-02-22T23:14:19.856Z,88.91
2023-02-22T23:16:51.422Z,88.79
2023-02-22T23:19:22.871Z,89.00
2023-02-22T23:21:55.829Z,89.03
2023-02-22T23:24:27.510Z,89.04
2023-02-22T23:27:00.339Z,89.14
2023-02-22T23:29:32.163Z,89.28
2023-02-22T23:32:02.624Z,89.24
2023-02-22T23:34:35.854Z,89.45
2023-02-22T23:37:10.041Z,89.02
2023-02-22T23:39:40.968Z,88.73
2023-02-22T23:42:11.292Z,88.94
2023-02-22T23:44:42.177Z,88.86
2023-02-22T23:47:12.552Z,88.64
2023-02-22T23:49:49.393Z,88.69
2023-02-22T23:52:24.040Z,88.72
2023-02-22T23:54:54.725Z,88.93
2023-02-22T23:57:25.983Z,89.13
2023-02-22T23:59:56.645Z,89.13
